sensor_id;sensor_type;location;lat;lon;timestamp;P1;durP1;ratioP1;P2;durP2;ratioP2
64959;SDS011;51487;52.266;10.542;2023-05-07T00:00:00;18.23;;;15.20;;
64959;SDS011;51487;52.266;10.542;2023-05-07T00:02:26;20.90;;;15.88;;
64959;SDS011;51487;52.266;10.542;2023-05-07T00:04:52;18.67;;;15.25;;
64959;SDS011;51487;52.266;10.542;2023-05-07T00:07:17;18.48;;;14.95;;
64959;SDS011;51487;52.266;10.542;2023-05-07T00:09:43;18.98;;;14.80;;
64959;SDS011;51487;52.266;10.542;2023-05-07T00:12:09;17.63;;;14.23;;
64959;SDS011;51487;52.266;10.542;2023-05-07T00:14:35;17.42;;;14.93;;
64959;SDS011;51487;52.266;10.542;2023-05-07T00:17:00;19.42;;;15.25;;
64959;SDS011;51487;52.266;10.542;2023-05-07T00:19:26;18.48;;;14.60;;
64959;SDS011;51487;52.266;10.542;2023-05-07T00:21:52;19.13;;;14.77;;
64959;SDS011;51487;52.266;10.542;2023-05-07T00:24:21;16.85;;;13.73;;
64959;SDS011;51487;52.266;10.542;2023-05-07T00:26:46;15.70;;;12.55;;
64959;SDS011;51487;52.266;10.542;2023-05-07T00:29:12;14.57;;;12.00;;
64959;SDS011;51487;52.266;10.542;2023-05-07T00:31:38;13.68;;;11.40;;
64959;SDS011;51487;52.266;10.542;2023-05-07T00:34:03;12.25;;;10.10;;
64959;SDS011;51487;52.266;10.542;2023-05-07T00:36:29;14.77;;;9.88;;
64959;SDS011;51487;52.266;10.542;2023-05-07T00:38:56;12.00;;;10.10;;
64959;SDS011;51487;52.266;10.542;2023-05-07T00:41:24;13.57;;;9.73;;
64959;SDS011;51487;52.266;10.542;2023-05-07T00:43:50;13.13;;;9.57;;
64959;SDS011;51487;52.266;10.542;2023-05-07T00:46:16;11.35;;;9.48;;
64959;SDS011;51487;52.266;10.542;2023-05-07T00:48:43;15.77;;;10.80;;
64959;SDS011;51487;52.266;10.542;2023-05-07T00:51:10;13.60;;;10.48;;
64959;SDS011;51487;52.266;10.542;2023-05-07T00:53:36;13.00;;;10.50;;
64959;SDS011;51487;52.266;10.542;2023-05-07T00:56:02;13.57;;;10.48;;
64959;SDS011;51487;52.266;10.542;2023-05-07T00:58:28;14.88;;;10.95;;
64959;SDS011;51487;52.266;10.542;2023-05-07T01:00:55;14.95;;;10.88;;
64959;SDS011;51487;52.266;10.542;2023-05-07T01:03:21;13.75;;;10.80;;
64959;SDS011;51487;52.266;10.542;2023-05-07T01:05:46;13.60;;;11.13;;
64959;SDS011;51487;52.266;10.542;2023-05-07T01:08:14;15.82;;;11.10;;
64959;SDS011;51487;52.266;10.542;2023-05-07T01:10:41;13.40;;;10.75;;
64959;SDS011;51487;52.266;10.542;2023-05-07T01:13:11;14.90;;;11.02;;
64959;SDS011;51487;52.266;10.542;2023-05-07T01:15:38;15.43;;;10.15;;
64959;SDS011;51487;52.266;10.542;2023-05-07T01:18:06;13.35;;;9.82;;
64959;SDS011;51487;52.266;10.542;2023-05-07T01:20:32;14.45;;;9.82;;
64959;SDS011;51487;52.266;10.542;2023-05-07T01:22:58;13.10;;;10.43;;
64959;SDS011;51487;52.266;10.542;2023-05-07T01:25:26;11.70;;;8.98;;
64959;SDS011;51487;52.266;10.542;2023-05-07T01:27:52;14.07;;;9.73;;
64959;SDS011;51487;52.266;10.542;2023-05-07T01:30:18;12.68;;;9.95;;
64959;SDS011;51487;52.266;10.542;2023-05-07T01:32:52;11.13;;;9.15;;
64959;SDS011;51487;52.266;10.542;2023-05-07T01:35:25;12.27;;;9.80;;
64959;SDS011;51487;52.266;10.542;2023-05-07T01:37:55;11.95;;;8.73;;
64959;SDS011;51487;52.266;10.542;2023-05-07T01:40:22;12.27;;;9.95;;
64959;SDS011;51487;52.266;10.542;2023-05-07T01:42:49;12.38;;;10.18;;
64959;SDS011;51487;52.266;10.542;2023-05-07T01:45:16;11.55;;;9.45;;
64959;SDS011;51487;52.266;10.542;2023-05-07T01:47:41;13.90;;;10.15;;
64959;SDS011;51487;52.266;10.542;2023-05-07T01:50:08;13.13;;;9.43;;
64959;SDS011;51487;52.266;10.542;2023-05-07T01:52:35;10.75;;;8.27;;
64959;SDS011;51487;52.266;10.542;2023-05-07T01:55:03;9.95;;;8.52;;
64959;SDS011;51487;52.266;10.542;2023-05-07T01:57:29;10.75;;;9.07;;
64959;SDS011;51487;52.266;10.542;2023-05-07T01:59:55;10.25;;;8.80;;
64959;SDS011;51487;52.266;10.542;2023-05-07T02:02:21;10.95;;;8.57;;
64959;SDS011;51487;52.266;10.542;2023-05-07T02:04:46;9.63;;;8.23;;
64959;SDS011;51487;52.266;10.542;2023-05-07T02:07:11;10.13;;;8.63;;
64959;SDS011;51487;52.266;10.542;2023-05-07T02:09:37;9.13;;;8.10;;
64959;SDS011;51487;52.266;10.542;2023-05-07T02:12:03;13.20;;;10.10;;
64959;SDS011;51487;52.266;10.542;2023-05-07T02:14:29;9.80;;;7.57;;
64959;SDS011;51487;52.266;10.542;2023-05-07T02:16:54;10.30;;;8.32;;
64959;SDS011;51487;52.266;10.542;2023-05-07T02:19:20;11.32;;;8.50;;
64959;SDS011;51487;52.266;10.542;2023-05-07T02:21:46;10.20;;;8.57;;
64959;SDS011;51487;52.266;10.542;2023-05-07T02:24:12;9.77;;;8.30;;
64959;SDS011;51487;52.266;10.542;2023-05-07T02:26:39;9.05;;;7.88;;
64959;SDS011;51487;52.266;10.542;2023-05-07T02:29:06;8.88;;;7.65;;
64959;SDS011;51487;52.266;10.542;2023-05-07T02:31:32;8.68;;;7.35;;
64959;SDS011;51487;52.266;10.542;2023-05-07T02:33:58;8.55;;;7.50;;
64959;SDS011;51487;52.266;10.542;2023-05-07T02:36:25;10.43;;;8.13;;
64959;SDS011;51487;52.266;10.542;2023-05-07T02:38:51;9.35;;;7.60;;
64959;SDS011;51487;52.266;10.542;2023-05-07T02:41:17;9.60;;;7.95;;
64959;SDS011;51487;52.266;10.542;2023-05-07T02:43:43;9.55;;;7.95;;
64959;SDS011;51487;52.266;10.542;2023-05-07T02:46:08;10.57;;;7.70;;
64959;SDS011;51487;52.266;10.542;2023-05-07T02:48:34;9.38;;;7.60;;
64959;SDS011;51487;52.266;10.542;2023-05-07T02:51:01;9.80;;;7.63;;
64959;SDS011;51487;52.266;10.542;2023-05-07T02:53:28;10.60;;;7.57;;
64959;SDS011;51487;52.266;10.542;2023-05-07T02:55:57;10.10;;;8.00;;
64959;SDS011;51487;52.266;10.542;2023-05-07T02:58:25;10.15;;;7.85;;
64959;SDS011;51487;52.266;10.542;2023-05-07T03:00:51;9.13;;;7.63;;
64959;SDS011;51487;52.266;10.542;2023-05-07T03:03:19;7.78;;;6.63;;
64959;SDS011;51487;52.266;10.542;2023-05-07T03:05:45;9.35;;;7.45;;
64959;SDS011;51487;52.266;10.542;2023-05-07T03:08:11;9.32;;;7.40;;
64959;SDS011;51487;52.266;10.542;2023-05-07T03:10:36;9.57;;;7.85;;
64959;SDS011;51487;52.266;10.542;2023-05-07T03:13:02;9.77;;;7.55;;
64959;SDS011;51487;52.266;10.542;2023-05-07T03:15:29;10.32;;;8.27;;
64959;SDS011;51487;52.266;10.542;2023-05-07T03:17:55;9.63;;;7.35;;
64959;SDS011;51487;52.266;10.542;2023-05-07T03:20:21;9.57;;;7.82;;
64959;SDS011;51487;52.266;10.542;2023-05-07T03:22:46;9.48;;;8.45;;
64959;SDS011;51487;52.266;10.542;2023-05-07T03:25:12;10.95;;;8.45;;
64959;SDS011;51487;52.266;10.542;2023-05-07T03:27:39;9.05;;;7.43;;
64959;SDS011;51487;52.266;10.542;2023-05-07T03:30:05;8.85;;;7.63;;
64959;SDS011;51487;52.266;10.542;2023-05-07T03:32:32;10.68;;;7.82;;
64959;SDS011;51487;52.266;10.542;2023-05-07T03:34:58;8.85;;;7.80;;
64959;SDS011;51487;52.266;10.542;2023-05-07T03:37:24;8.95;;;7.32;;
64959;SDS011;51487;52.266;10.542;2023-05-07T03:39:49;8.32;;;7.15;;
64959;SDS011;51487;52.266;10.542;2023-05-07T03:42:15;10.07;;;7.85;;
64959;SDS011;51487;52.266;10.542;2023-05-07T03:44:40;9.07;;;7.53;;
64959;SDS011;51487;52.266;10.542;2023-05-07T03:47:06;8.80;;;6.97;;
64959;SDS011;51487;52.266;10.542;2023-05-07T03:49:31;8.77;;;7.13;;
64959;SDS011;51487;52.266;10.542;2023-05-07T03:51:57;8.43;;;7.47;;
64959;SDS011;51487;52.266;10.542;2023-05-07T03:54:22;7.78;;;6.80;;
64959;SDS011;51487;52.266;10.542;2023-05-07T03:56:48;8.80;;;7.45;;
64959;SDS011;51487;52.266;10.542;2023-05-07T03:59:14;10.35;;;7.88;;
64959;SDS011;51487;52.266;10.542;2023-05-07T04:01:39;9.13;;;7.70;;
64959;SDS011;51487;52.266;10.542;2023-05-07T04:04:05;8.52;;;7.68;;
64959;SDS011;51487;52.266;10.542;2023-05-07T04:06:31;8.02;;;7.05;;
64959;SDS011;51487;52.266;10.542;2023-05-07T04:08:56;7.95;;;6.82;;
64959;SDS011;51487;52.266;10.542;2023-05-07T04:11:22;8.13;;;6.60;;
64959;SDS011;51487;52.266;10.542;2023-05-07T04:13:48;7.65;;;6.85;;
64959;SDS011;51487;52.266;10.542;2023-05-07T04:16:13;7.75;;;6.32;;
64959;SDS011;51487;52.266;10.542;2023-05-07T04:18:39;7.50;;;6.53;;
64959;SDS011;51487;52.266;10.542;2023-05-07T04:21:05;7.82;;;6.70;;
64959;SDS011;51487;52.266;10.542;2023-05-07T04:23:31;7.60;;;6.80;;
64959;SDS011;51487;52.266;10.542;2023-05-07T04:25:56;6.82;;;6.13;;
64959;SDS011;51487;52.266;10.542;2023-05-07T04:28:22;7.28;;;6.30;;
64959;SDS011;51487;52.266;10.542;2023-05-07T04:30:48;8.13;;;6.43;;
64959;SDS011;51487;52.266;10.542;2023-05-07T04:33:14;6.72;;;5.95;;
64959;SDS011;51487;52.266;10.542;2023-05-07T04:35:43;7.80;;;6.43;;
64959;SDS011;51487;52.266;10.542;2023-05-07T04:38:08;7.47;;;6.68;;
64959;SDS011;51487;52.266;10.542;2023-05-07T04:40:35;7.47;;;6.55;;
64959;SDS011;51487;52.266;10.542;2023-05-07T04:43:01;6.75;;;6.07;;
64959;SDS011;51487;52.266;10.542;2023-05-07T04:45:27;7.68;;;6.78;;
64959;SDS011;51487;52.266;10.542;2023-05-07T04:47:52;7.88;;;6.57;;
64959;SDS011;51487;52.266;10.542;2023-05-07T04:50:18;7.38;;;6.35;;
64959;SDS011;51487;52.266;10.542;2023-05-07T04:52:44;7.38;;;6.68;;
64959;SDS011;51487;52.266;10.542;2023-05-07T04:55:10;7.57;;;6.43;;
64959;SDS011;51487;52.266;10.542;2023-05-07T04:57:36;7.60;;;6.38;;
64959;SDS011;51487;52.266;10.542;2023-05-07T05:00:04;7.32;;;6.20;;
64959;SDS011;51487;52.266;10.542;2023-05-07T05:02:33;8.07;;;6.32;;
64959;SDS011;51487;52.266;10.542;2023-05-07T05:04:58;7.70;;;5.88;;
64959;SDS011;51487;52.266;10.542;2023-05-07T05:07:24;7.28;;;5.95;;
64959;SDS011;51487;52.266;10.542;2023-05-07T05:09:50;6.40;;;5.70;;
64959;SDS011;51487;52.266;10.542;2023-05-07T05:12:15;5.93;;;5.30;;
64959;SDS011;51487;52.266;10.542;2023-05-07T05:14:41;5.70;;;5.07;;
64959;SDS011;51487;52.266;10.542;2023-05-07T05:17:06;6.15;;;5.40;;
64959;SDS011;51487;52.266;10.542;2023-05-07T05:19:32;5.60;;;5.00;;
64959;SDS011;51487;52.266;10.542;2023-05-07T05:21:58;6.07;;;4.88;;
64959;SDS011;51487;52.266;10.542;2023-05-07T05:24:25;6.45;;;5.07;;
64959;SDS011;51487;52.266;10.542;2023-05-07T05:26:52;8.02;;;5.22;;
64959;SDS011;51487;52.266;10.542;2023-05-07T05:29:19;7.03;;;5.63;;
64959;SDS011;51487;52.266;10.542;2023-05-07T05:31:45;6.15;;;5.55;;
64959;SDS011;51487;52.266;10.542;2023-05-07T05:34:10;6.85;;;6.15;;
64959;SDS011;51487;52.266;10.542;2023-05-07T05:36:36;8.38;;;6.22;;
64959;SDS011;51487;52.266;10.542;2023-05-07T05:39:01;6.40;;;5.43;;
64959;SDS011;51487;52.266;10.542;2023-05-07T05:41:27;7.55;;;6.35;;
64959;SDS011;51487;52.266;10.542;2023-05-07T05:43:52;7.13;;;6.25;;
64959;SDS011;51487;52.266;10.542;2023-05-07T05:46:18;8.27;;;6.50;;
64959;SDS011;51487;52.266;10.542;2023-05-07T05:48:44;8.43;;;6.43;;
64959;SDS011;51487;52.266;10.542;2023-05-07T05:51:09;8.38;;;7.40;;
64959;SDS011;51487;52.266;10.542;2023-05-07T05:53:35;8.07;;;7.28;;
64959;SDS011;51487;52.266;10.542;2023-05-07T05:56:00;8.75;;;7.20;;
64959;SDS011;51487;52.266;10.542;2023-05-07T05:58:26;7.32;;;6.50;;
64959;SDS011;51487;52.266;10.542;2023-05-07T06:00:52;8.00;;;7.20;;
64959;SDS011;51487;52.266;10.542;2023-05-07T06:03:18;7.90;;;7.10;;
64959;SDS011;51487;52.266;10.542;2023-05-07T06:05:43;9.95;;;7.72;;
64959;SDS011;51487;52.266;10.542;2023-05-07T06:08:09;9.25;;;7.28;;
64959;SDS011;51487;52.266;10.542;2023-05-07T06:10:35;8.15;;;7.00;;
64959;SDS011;51487;52.266;10.542;2023-05-07T06:13:02;9.00;;;6.95;;
64959;SDS011;51487;52.266;10.542;2023-05-07T06:15:27;8.32;;;7.22;;
64959;SDS011;51487;52.266;10.542;2023-05-07T06:17:53;7.65;;;6.85;;
64959;SDS011;51487;52.266;10.542;2023-05-07T06:20:20;8.10;;;7.30;;
64959;SDS011;51487;52.266;10.542;2023-05-07T06:22:46;7.85;;;7.05;;
64959;SDS011;51487;52.266;10.542;2023-05-07T06:25:11;8.35;;;7.35;;
64959;SDS011;51487;52.266;10.542;2023-05-07T06:27:37;9.20;;;7.25;;
64959;SDS011;51487;52.266;10.542;2023-05-07T06:30:04;8.57;;;7.32;;
64959;SDS011;51487;52.266;10.542;2023-05-07T06:32:31;8.02;;;7.20;;
64959;SDS011;51487;52.266;10.542;2023-05-07T06:34:57;7.35;;;6.63;;
64959;SDS011;51487;52.266;10.542;2023-05-07T06:37:22;7.65;;;6.82;;
64959;SDS011;51487;52.266;10.542;2023-05-07T06:39:48;7.22;;;5.93;;
64959;SDS011;51487;52.266;10.542;2023-05-07T06:42:13;9.32;;;6.10;;
64959;SDS011;51487;52.266;10.542;2023-05-07T06:44:39;6.53;;;5.82;;
64959;SDS011;51487;52.266;10.542;2023-05-07T06:47:04;6.15;;;5.25;;
64959;SDS011;51487;52.266;10.542;2023-05-07T06:49:30;7.78;;;5.95;;
64959;SDS011;51487;52.266;10.542;2023-05-07T06:51:56;7.15;;;5.57;;
64959;SDS011;51487;52.266;10.542;2023-05-07T06:54:22;6.00;;;5.30;;
64959;SDS011;51487;52.266;10.542;2023-05-07T06:56:48;6.25;;;5.32;;
64959;SDS011;51487;52.266;10.542;2023-05-07T06:59:13;5.95;;;4.97;;
64959;SDS011;51487;52.266;10.542;2023-05-07T07:01:39;6.53;;;5.50;;
64959;SDS011;51487;52.266;10.542;2023-05-07T07:04:05;5.82;;;5.03;;
64959;SDS011;51487;52.266;10.542;2023-05-07T07:06:31;5.97;;;5.28;;
64959;SDS011;51487;52.266;10.542;2023-05-07T07:08:57;6.75;;;4.40;;
64959;SDS011;51487;52.266;10.542;2023-05-07T07:11:24;6.68;;;4.80;;
64959;SDS011;51487;52.266;10.542;2023-05-07T07:13:49;5.80;;;5.15;;
64959;SDS011;51487;52.266;10.542;2023-05-07T07:16:15;5.70;;;5.10;;
64959;SDS011;51487;52.266;10.542;2023-05-07T07:18:41;6.93;;;5.47;;
64959;SDS011;51487;52.266;10.542;2023-05-07T07:21:07;6.55;;;5.70;;
64959;SDS011;51487;52.266;10.542;2023-05-07T07:23:33;7.20;;;5.95;;
64959;SDS011;51487;52.266;10.542;2023-05-07T07:25:58;7.25;;;5.65;;
64959;SDS011;51487;52.266;10.542;2023-05-07T07:28:24;7.35;;;5.80;;
64959;SDS011;51487;52.266;10.542;2023-05-07T07:30:49;6.63;;;5.70;;
64959;SDS011;51487;52.266;10.542;2023-05-07T07:33:15;6.78;;;5.85;;
64959;SDS011;51487;52.266;10.542;2023-05-07T07:35:41;7.68;;;6.00;;
64959;SDS011;51487;52.266;10.542;2023-05-07T07:38:06;7.03;;;5.82;;
64959;SDS011;51487;52.266;10.542;2023-05-07T07:40:34;7.70;;;5.47;;
64959;SDS011;51487;52.266;10.542;2023-05-07T07:43:00;6.55;;;5.63;;
64959;SDS011;51487;52.266;10.542;2023-05-07T07:45:26;6.53;;;5.70;;
64959;SDS011;51487;52.266;10.542;2023-05-07T07:47:52;6.75;;;5.70;;
64959;SDS011;51487;52.266;10.542;2023-05-07T07:50:17;6.05;;;5.20;;
64959;SDS011;51487;52.266;10.542;2023-05-07T07:52:43;7.60;;;5.47;;
64959;SDS011;51487;52.266;10.542;2023-05-07T07:55:09;7.18;;;5.82;;
64959;SDS011;51487;52.266;10.542;2023-05-07T07:57:35;6.57;;;5.30;;
64959;SDS011;51487;52.266;10.542;2023-05-07T08:00:00;6.72;;;5.43;;
64959;SDS011;51487;52.266;10.542;2023-05-07T08:02:26;7.57;;;5.55;;
64959;SDS011;51487;52.266;10.542;2023-05-07T08:04:52;7.05;;;5.20;;
64959;SDS011;51487;52.266;10.542;2023-05-07T08:07:17;7.38;;;6.05;;
64959;SDS011;51487;52.266;10.542;2023-05-07T08:09:45;7.80;;;5.85;;
64959;SDS011;51487;52.266;10.542;2023-05-07T08:12:11;6.13;;;5.40;;
64959;SDS011;51487;52.266;10.542;2023-05-07T08:14:37;6.78;;;5.97;;
64959;SDS011;51487;52.266;10.542;2023-05-07T08:17:03;6.57;;;5.68;;
64959;SDS011;51487;52.266;10.542;2023-05-07T08:19:28;7.10;;;5.63;;
64959;SDS011;51487;52.266;10.542;2023-05-07T08:21:54;7.25;;;5.93;;
64959;SDS011;51487;52.266;10.542;2023-05-07T08:24:20;8.38;;;5.80;;
64959;SDS011;51487;52.266;10.542;2023-05-07T08:26:46;7.45;;;6.47;;
64959;SDS011;51487;52.266;10.542;2023-05-07T08:29:11;7.95;;;6.28;;
64959;SDS011;51487;52.266;10.542;2023-05-07T08:31:37;6.93;;;6.22;;
64959;SDS011;51487;52.266;10.542;2023-05-07T08:34:04;7.70;;;6.90;;
64959;SDS011;51487;52.266;10.542;2023-05-07T08:36:31;7.43;;;6.53;;
64959;SDS011;51487;52.266;10.542;2023-05-07T08:38:57;7.32;;;6.57;;
64959;SDS011;51487;52.266;10.542;2023-05-07T08:41:22;8.38;;;6.80;;
64959;SDS011;51487;52.266;10.542;2023-05-07T08:43:49;7.70;;;6.65;;
64959;SDS011;51487;52.266;10.542;2023-05-07T08:46:19;8.25;;;6.50;;
64959;SDS011;51487;52.266;10.542;2023-05-07T08:48:50;33.53;;;9.07;;
64959;SDS011;51487;52.266;10.542;2023-05-07T08:51:17;9.35;;;5.35;;
64959;SDS011;51487;52.266;10.542;2023-05-07T08:53:46;7.95;;;3.60;;
64959;SDS011;51487;52.266;10.542;2023-05-07T08:56:16;7.25;;;2.85;;
64959;SDS011;51487;52.266;10.542;2023-05-07T08:58:43;4.90;;;3.30;;
64959;SDS011;51487;52.266;10.542;2023-05-07T09:01:10;5.25;;;2.80;;
64959;SDS011;51487;52.266;10.542;2023-05-07T09:03:39;3.58;;;2.97;;
64959;SDS011;51487;52.266;10.542;2023-05-07T09:06:06;4.35;;;3.03;;
64959;SDS011;51487;52.266;10.542;2023-05-07T09:08:32;4.22;;;3.10;;
64959;SDS011;51487;52.266;10.542;2023-05-07T09:10:59;3.53;;;3.10;;
64959;SDS011;51487;52.266;10.542;2023-05-07T09:13:25;4.75;;;2.95;;
64959;SDS011;51487;52.266;10.542;2023-05-07T09:15:53;3.50;;;3.00;;
64959;SDS011;51487;52.266;10.542;2023-05-07T09:18:18;4.95;;;3.00;;
64959;SDS011;51487;52.266;10.542;2023-05-07T09:20:44;4.82;;;2.90;;
64959;SDS011;51487;52.266;10.542;2023-05-07T09:23:10;3.90;;;2.70;;
64959;SDS011;51487;52.266;10.542;2023-05-07T09:25:36;3.33;;;2.88;;
64959;SDS011;51487;52.266;10.542;2023-05-07T09:28:02;3.60;;;2.70;;
64959;SDS011;51487;52.266;10.542;2023-05-07T09:30:32;4.60;;;3.92;;
64959;SDS011;51487;52.266;10.542;2023-05-07T09:32:59;5.88;;;4.82;;
64959;SDS011;51487;52.266;10.542;2023-05-07T09:35:27;5.70;;;4.70;;
64959;SDS011;51487;52.266;10.542;2023-05-07T09:37:53;5.30;;;4.60;;
64959;SDS011;51487;52.266;10.542;2023-05-07T09:40:21;6.65;;;4.40;;
64959;SDS011;51487;52.266;10.542;2023-05-07T09:42:50;5.20;;;4.70;;
64959;SDS011;51487;52.266;10.542;2023-05-07T09:45:16;6.95;;;4.07;;
64959;SDS011;51487;52.266;10.542;2023-05-07T09:47:54;4.78;;;4.00;;
64959;SDS011;51487;52.266;10.542;2023-05-07T09:51:11;5.10;;;4.22;;
64959;SDS011;51487;52.266;10.542;2023-05-07T09:53:14;5.13;;;4.30;;
64959;SDS011;51487;52.266;10.542;2023-05-07T09:55:42;4.90;;;4.30;;
64959;SDS011;51487;52.266;10.542;2023-05-07T09:58:08;4.53;;;3.90;;
64959;SDS011;51487;52.266;10.542;2023-05-07T10:00:37;6.93;;;4.22;;
64959;SDS011;51487;52.266;10.542;2023-05-07T10:03:05;5.07;;;4.15;;
64959;SDS011;51487;52.266;10.542;2023-05-07T10:05:31;4.70;;;3.95;;
64959;SDS011;51487;52.266;10.542;2023-05-07T10:07:58;4.80;;;3.67;;
64959;SDS011;51487;52.266;10.542;2023-05-07T10:10:25;4.40;;;3.85;;
64959;SDS011;51487;52.266;10.542;2023-05-07T10:12:53;4.15;;;3.55;;
64959;SDS011;51487;52.266;10.542;2023-05-07T10:15:19;4.28;;;3.75;;
64959;SDS011;51487;52.266;10.542;2023-05-07T10:17:46;4.55;;;3.53;;
64959;SDS011;51487;52.266;10.542;2023-05-07T10:20:13;5.85;;;3.88;;
64959;SDS011;51487;52.266;10.542;2023-05-07T10:22:41;4.40;;;3.70;;
64959;SDS011;51487;52.266;10.542;2023-05-07T10:25:14;6.40;;;3.70;;
64959;SDS011;51487;52.266;10.542;2023-05-07T10:27:46;4.55;;;3.92;;
64959;SDS011;51487;52.266;10.542;2023-05-07T10:33:01;5.13;;;4.30;;
64959;SDS011;51487;52.266;10.542;2023-05-07T10:35:32;4.65;;;3.97;;
64959;SDS011;51487;52.266;10.542;2023-05-07T10:38:06;5.85;;;4.10;;
64959;SDS011;51487;52.266;10.542;2023-05-07T10:40:32;5.05;;;4.28;;
64959;SDS011;51487;52.266;10.542;2023-05-07T10:42:59;5.38;;;4.13;;
64959;SDS011;51487;52.266;10.542;2023-05-07T10:45:27;6.45;;;5.20;;
64959;SDS011;51487;52.266;10.542;2023-05-07T10:48:10;6.55;;;4.65;;
64959;SDS011;51487;52.266;10.542;2023-05-07T10:50:43;4.20;;;3.80;;
64959;SDS011;51487;52.266;10.542;2023-05-07T10:55:43;5.07;;;3.83;;
64959;SDS011;51487;52.266;10.542;2023-05-07T11:00:47;4.10;;;3.50;;
64959;SDS011;51487;52.266;10.542;2023-05-07T11:03:14;5.40;;;3.35;;
64959;SDS011;51487;52.266;10.542;2023-05-07T11:05:40;5.35;;;3.67;;
64959;SDS011;51487;52.266;10.542;2023-05-07T11:08:07;4.57;;;3.70;;
64959;SDS011;51487;52.266;10.542;2023-05-07T11:10:53;3.38;;;2.95;;
64959;SDS011;51487;52.266;10.542;2023-05-07T11:18:53;5.05;;;3.13;;
64959;SDS011;51487;52.266;10.542;2023-05-07T11:21:36;3.75;;;3.08;;
64959;SDS011;51487;52.266;10.542;2023-05-07T11:24:09;4.07;;;3.10;;
64959;SDS011;51487;52.266;10.542;2023-05-07T11:29:11;5.57;;;2.80;;
64959;SDS011;51487;52.266;10.542;2023-05-07T11:31:39;3.10;;;2.80;;
64959;SDS011;51487;52.266;10.542;2023-05-07T11:34:05;3.38;;;2.80;;
64959;SDS011;51487;52.266;10.542;2023-05-07T11:36:32;3.67;;;3.08;;
64959;SDS011;51487;52.266;10.542;2023-05-07T11:38:58;4.57;;;3.38;;
64959;SDS011;51487;52.266;10.542;2023-05-07T11:41:33;3.47;;;3.05;;
64959;SDS011;51487;52.266;10.542;2023-05-07T11:44:02;4.88;;;3.40;;
64959;SDS011;51487;52.266;10.542;2023-05-07T11:46:28;3.78;;;3.08;;
64959;SDS011;51487;52.266;10.542;2023-05-07T11:48:54;3.92;;;3.40;;
64959;SDS011;51487;52.266;10.542;2023-05-07T11:51:21;3.92;;;3.53;;
64959;SDS011;51487;52.266;10.542;2023-05-07T11:53:51;4.50;;;3.00;;
64959;SDS011;51487;52.266;10.542;2023-05-07T11:56:17;5.47;;;3.30;;
64959;SDS011;51487;52.266;10.542;2023-05-07T11:58:44;4.30;;;3.60;;
64959;SDS011;51487;52.266;10.542;2023-05-07T12:01:12;5.72;;;3.90;;
64959;SDS011;51487;52.266;10.542;2023-05-07T12:03:41;4.50;;;3.65;;
64959;SDS011;51487;52.266;10.542;2023-05-07T12:06:08;5.18;;;3.53;;
64959;SDS011;51487;52.266;10.542;2023-05-07T12:08:36;6.00;;;4.20;;
64959;SDS011;51487;52.266;10.542;2023-05-07T12:11:03;4.70;;;3.67;;
64959;SDS011;51487;52.266;10.542;2023-05-07T12:13:32;5.38;;;3.50;;
64959;SDS011;51487;52.266;10.542;2023-05-07T12:15:58;4.72;;;3.80;;
64959;SDS011;51487;52.266;10.542;2023-05-07T12:18:24;4.50;;;3.75;;
64959;SDS011;51487;52.266;10.542;2023-05-07T12:20:50;5.53;;;4.00;;
64959;SDS011;51487;52.266;10.542;2023-05-07T12:23:15;4.53;;;3.72;;
64959;SDS011;51487;52.266;10.542;2023-05-07T12:25:42;5.38;;;4.40;;
64959;SDS011;51487;52.266;10.542;2023-05-07T12:28:13;6.85;;;4.22;;
64959;SDS011;51487;52.266;10.542;2023-05-07T12:30:40;4.85;;;4.03;;
64959;SDS011;51487;52.266;10.542;2023-05-07T12:33:09;4.45;;;3.50;;
64959;SDS011;51487;52.266;10.542;2023-05-07T12:35:42;4.50;;;3.72;;
64959;SDS011;51487;52.266;10.542;2023-05-07T12:38:11;5.65;;;3.90;;
64959;SDS011;51487;52.266;10.542;2023-05-07T12:43:17;5.43;;;4.03;;
64959;SDS011;51487;52.266;10.542;2023-05-07T12:45:44;5.03;;;4.00;;
64959;SDS011;51487;52.266;10.542;2023-05-07T12:48:13;5.25;;;4.30;;
64959;SDS011;51487;52.266;10.542;2023-05-07T12:50:39;5.13;;;4.13;;
64959;SDS011;51487;52.266;10.542;2023-05-07T12:53:06;5.20;;;3.83;;
64959;SDS011;51487;52.266;10.542;2023-05-07T12:55:43;5.30;;;3.92;;
64959;SDS011;51487;52.266;10.542;2023-05-07T12:58:14;5.25;;;3.47;;
64959;SDS011;51487;52.266;10.542;2023-05-07T13:00:55;6.40;;;3.75;;
64959;SDS011;51487;52.266;10.542;2023-05-07T13:03:29;6.78;;;4.15;;
64959;SDS011;51487;52.266;10.542;2023-05-07T13:05:58;5.28;;;4.13;;
64959;SDS011;51487;52.266;10.542;2023-05-07T13:08:35;6.18;;;4.25;;
64959;SDS011;51487;52.266;10.542;2023-05-07T13:11:06;4.90;;;3.90;;
64959;SDS011;51487;52.266;10.542;2023-05-07T13:13:34;5.22;;;3.85;;
64959;SDS011;51487;52.266;10.542;2023-05-07T13:16:02;6.35;;;4.05;;
64959;SDS011;51487;52.266;10.542;2023-05-07T13:18:29;6.07;;;3.92;;
64959;SDS011;51487;52.266;10.542;2023-05-07T13:20:56;4.65;;;4.10;;
64959;SDS011;51487;52.266;10.542;2023-05-07T13:23:21;4.75;;;3.75;;
64959;SDS011;51487;52.266;10.542;2023-05-07T13:25:47;4.55;;;3.42;;
64959;SDS011;51487;52.266;10.542;2023-05-07T13:28:14;4.72;;;3.40;;
64959;SDS011;51487;52.266;10.542;2023-05-07T13:30:40;5.85;;;4.30;;
64959;SDS011;51487;52.266;10.542;2023-05-07T13:33:06;4.50;;;3.60;;
64959;SDS011;51487;52.266;10.542;2023-05-07T13:35:32;7.55;;;3.63;;
64959;SDS011;51487;52.266;10.542;2023-05-07T13:37:58;4.90;;;3.78;;
64959;SDS011;51487;52.266;10.542;2023-05-07T13:40:24;5.88;;;3.65;;
64959;SDS011;51487;52.266;10.542;2023-05-07T13:42:49;4.10;;;3.70;;
64959;SDS011;51487;52.266;10.542;2023-05-07T13:45:16;4.57;;;3.67;;
64959;SDS011;51487;52.266;10.542;2023-05-07T13:47:43;4.95;;;3.40;;
64959;SDS011;51487;52.266;10.542;2023-05-07T13:50:10;4.78;;;3.58;;
64959;SDS011;51487;52.266;10.542;2023-05-07T13:52:38;5.50;;;3.80;;
64959;SDS011;51487;52.266;10.542;2023-05-07T13:55:07;4.32;;;3.45;;
64959;SDS011;51487;52.266;10.542;2023-05-07T13:57:35;5.10;;;3.47;;
64959;SDS011;51487;52.266;10.542;2023-05-07T14:00:01;3.97;;;3.22;;
64959;SDS011;51487;52.266;10.542;2023-05-07T14:02:29;4.25;;;3.58;;
64959;SDS011;51487;52.266;10.542;2023-05-07T14:04:56;4.20;;;3.63;;
64959;SDS011;51487;52.266;10.542;2023-05-07T14:07:21;4.68;;;3.60;;
64959;SDS011;51487;52.266;10.542;2023-05-07T14:09:47;5.53;;;3.90;;
64959;SDS011;51487;52.266;10.542;2023-05-07T14:12:13;5.38;;;4.07;;
64959;SDS011;51487;52.266;10.542;2023-05-07T14:14:38;4.97;;;3.70;;
64959;SDS011;51487;52.266;10.542;2023-05-07T14:17:04;3.95;;;3.45;;
64959;SDS011;51487;52.266;10.542;2023-05-07T14:19:29;7.43;;;3.60;;
64959;SDS011;51487;52.266;10.542;2023-05-07T14:21:55;5.55;;;3.60;;
64959;SDS011;51487;52.266;10.542;2023-05-07T14:24:20;5.07;;;3.83;;
64959;SDS011;51487;52.266;10.542;2023-05-07T14:26:46;4.43;;;3.42;;
64959;SDS011;51487;52.266;10.542;2023-05-07T14:29:11;4.22;;;3.50;;
64959;SDS011;51487;52.266;10.542;2023-05-07T14:31:37;4.80;;;3.20;;
64959;SDS011;51487;52.266;10.542;2023-05-07T14:34:02;5.18;;;3.60;;
64959;SDS011;51487;52.266;10.542;2023-05-07T14:36:28;5.00;;;3.10;;
64959;SDS011;51487;52.266;10.542;2023-05-07T14:38:55;5.60;;;3.55;;
64959;SDS011;51487;52.266;10.542;2023-05-07T14:41:22;5.43;;;3.50;;
64959;SDS011;51487;52.266;10.542;2023-05-07T14:43:47;3.72;;;3.20;;
64959;SDS011;51487;52.266;10.542;2023-05-07T14:46:17;4.55;;;3.60;;